KCOU

Columbia Regional Airport

Airport
ICAO code
KCOU
IATA Code
COU
Summary
ICAO Region
NAM
ICAO Territory
Location

Columbia, Missouri

Serving
Columbia & Jefferson City
Elevation
889 ft
Coordinates
38° 49' 5" N , 92° 13' 11" W
KCC
Metar
KCOU 181654Z 18010G17KT 10SM SCT035 24/16 A2988 RMK AO2 SLP114 T02440161

Description

Columbia Regional Airport is a public use airport located 12 nm southeast of the central business district of Columbia, in Boone County, Missouri, USA.

Airport map

Aerial View

SKYbrary Partners:

Safety knowledge contributed by: